Arklow Raider — EIXS — position and weather

sailwx.info

Track history (hours):
 
Tides and Currents Weather Stations Pressure Air Temp Water Temp Dewpoint Dewpoint Depression Visibility Wind Speed Wind Dir Waves Ship Positions

Arklow Raider

Last reported at 2014-Jul-30 12:28 UTC. Time now 2014-Jul-30 13:15 UTC.
Position N 53°55' E 009°12'.

Length 90 m; draft 3.6 m.

Type: Cargo ship. MMSI: 250001268.

Date/timePositionNaut miles runAvg speedWind from/ knotsBaromVisibWave heightAir tempDewpointWater temp
2014-Jul-30 12:28N 53°55' E 009°12'0 0.0
2014-Jul-30 11:31N 53°55' E 009°12'0 0.0
2014-Jul-30 10:31N 53°55' E 009°12'0 0.0
2014-Jul-30 09:31N 53°55' E 009°12'0 0.0
2014-Jul-30 08:31N 53°55' E 009°12'0 0.0
2014-Jul-30 07:31N 53°55' E 009°12'0 0.1
2014-Jul-30 06:34N 53°55' E 009°12'3 3.1
2014-Jul-30 05:33N 53°53' E 009°08'8 8.0
2014-Jul-30 04:34N 53°51' E 008°55'1010.2
2014-Jul-30 03:33N 53°56' E 008°40'1111.0
2014-Jul-30 02:34N 53°59' E 008°22'1110.7
2014-Jul-30 01:31N 53°58' E 008°03'1111.3
2014-Jul-30 00:34N 53°56' E 007°45'1111.5
2014-Jul-29 23:34N 53°53' E 007°26'1211.7
2014-Jul-29 22:33N 53°51' E 007°07'1312.0
2014-Jul-29 21:30N 53°48' E 006°46'1111.9
2014-Jul-29 20:33N 53°45' E 006°27'1212.0
2014-Jul-29 19:33N 53°42' E 006°08'1211.9
2014-Jul-29 18:34N 53°38' E 005°49'1211.7
2014-Jul-29 17:34N 53°34' E 005°30'1211.6
2014-Jul-29 16:34N 53°31' E 005°12'1111.0
2014-Jul-29 15:33N 53°27' E 004°55'11 9.8
2014-Jul-29 14:23N 53°20' E 004°39'910.5
2014-Jul-29 13:33N 53°12' E 004°33'1010.2
2014-Jul-29 12:33N 53°03' E 004°25'1110.4
2014-Jul-29 11:30N 52°53' E 004°15'7410.7
2014-Jul-29 04:33N 52°58' E 002°13'10 9.8
2014-Jul-29 03:33N 53°03' E 001°59'10 9.8
2014-Jul-29 02:32N 53°08' E 001°45'1310.1
2014-Jul-29 01:15N 53°14' E 001°25'810.4
2014-Jul-29 00:31N 53°17' E 001°13'1010.8
2014-Jul-28 23:34N 53°21' E 000°58'1111.1
2014-Jul-28 22:33N 53°27' E 000°41'1111.4
2014-Jul-28 21:34N 53°32' E 000°24'1110.9
2014-Jul-28 20:33N 53°34' E 000°06'1211.8
2014-Jul-28 19:33N 53°39' W 000°11'7 7.1
2014-Jul-28 18:33N 53°43' W 000°22'0 0.1
2014-Jul-28 16:33N 53°43' W 000°22'0 0.0
2014-Jul-28 15:30N 53°43' W 000°22'0 0.0
2014-Jul-28 14:30N 53°43' W 000°22'0 0.0
2014-Jul-28 13:18N 53°43' W 000°22'0 0.0
2014-Jul-28 12:18N 53°43' W 000°22'0 0.0
2014-Jul-28 11:18N 53°43' W 000°22'0 0.0
2014-Jul-28 10:06N 53°43' W 000°22'0 0.0
2014-Jul-28 09:21N 53°43' W 000°22'0 0.0
2014-Jul-28 08:24N 53°43' W 000°22'0 0.0
2014-Jul-28 07:09N 53°43' W 000°22'0 0.0
2014-Jul-28 06:30N 53°43' W 000°22'0 0.0
2014-Jul-28 05:30N 53°43' W 000°22'0 0.0
2014-Jul-28 04:30N 53°43' W 000°22'0 0.0
2014-Jul-28 02:18N 53°43' W 000°22'0 0.0
2014-Jul-28 01:33N 53°43' W 000°22'0 0.0
2014-Jul-28 00:30N 53°43' W 000°22'0 0.0
2014-Jul-27 23:33N 53°43' W 000°22'0 0.0
2014-Jul-27 22:21N 53°43' W 000°22'0 0.0
2014-Jul-27 21:33N 53°43' W 000°22'0 0.0
2014-Jul-27 20:21N 53°43' W 000°22'0 0.0
2014-Jul-27 19:22N 53°43' W 000°22'1 1.4
2014-Jul-27 18:33N 53°43' W 000°20'8 8.5
2014-Jul-27 17:33N 53°38' W 000°09'1212.0
2014-Jul-27 16:33N 53°33' E 000°10'8 7.5
2014-Jul-27 15:33N 53°33' E 000°22'3 1.6
2014-Jul-27 13:33N 53°36' E 000°25'0 0.1
2014-Jul-27 12:21N 53°36' E 000°25'0 0.0
2014-Jul-27 11:06N 53°36' E 000°25'0 0.0
2014-Jul-27 08:27N 53°36' E 000°25'0 0.1
2014-Jul-27 07:33N 53°36' E 000°25'0 0.1
2014-Jul-27 06:28N 53°36' E 000°25'0 0.0
2014-Jul-27 05:15N 53°36' E 000°25'0 0.0
2014-Jul-27 04:30N 53°36' E 000°25'0 0.0
2014-Jul-27 03:16N 53°36' E 000°25'0 0.0
2014-Jul-27 02:18N 53°36' E 000°25'0 0.1
2014-Jul-27 01:19N 53°36' E 000°25'0 0.1
2014-Jul-26 23:15N 53°36' E 000°25'0 0.0
2014-Jul-26 22:06N 53°36' E 000°25'0 0.0
2014-Jul-26 21:24N 53°36' E 000°25'0 0.0
2014-Jul-26 20:31N 53°36' E 000°25'0 0.0
2014-Jul-26 19:33N 53°36' E 000°25'0 0.1
2014-Jul-26 18:33N 53°36' E 000°25'0 0.0
2014-Jul-26 17:34N 53°36' E 000°25'0 0.0
2014-Jul-26 16:33N 53°36' E 000°25'0 0.0
2014-Jul-26 15:33N 53°36' E 000°25'0 0.0
2014-Jul-26 14:34N 53°36' E 000°25'0 0.0
2014-Jul-26 13:33N 53°36' E 000°25'0 0.1
2014-Jul-26 12:34N 53°36' E 000°25'0 0.0
2014-Jul-26 11:24N 53°36' E 000°25'0 0.1
2014-Jul-26 10:34N 53°36' E 000°25'0 0.0
2014-Jul-26 09:24N 53°36' E 000°25'0 0.0
2014-Jul-26 08:30N 53°36' E 000°25'0 0.1
2014-Jul-26 07:22N 53°36' E 000°25'0 0.1
2014-Jul-26 06:18N 53°36' E 000°25'1 0.8
2014-Jul-26 05:25N 53°35' E 000°25'6 7.4
2014-Jul-26 04:33N 53°29' E 000°29'10 9.5
2014-Jul-26 03:33N 53°21' E 000°35'10 9.8
2014-Jul-26 02:31N 53°13' E 000°46'1110.7
2014-Jul-26 01:32N 53°06' E 001°00'1111.2
2014-Jul-26 00:33N 53°03' E 001°17'1211.5
2014-Jul-25 23:33N 52°57' E 001°33'1111.4
2014-Jul-25 22:33N 52°49' E 001°48'34 8.6
2014-Jul-25 18:33N 52°15' E 001°56'1010.2
2014-Jul-25 17:33N 52°05' E 001°53'1110.7
2014-Jul-25 16:33N 51°55' E 001°49'1111.3
2014-Jul-25 15:33N 51°44' E 001°49'1111.2
2014-Jul-25 14:33N 51°32' E 001°49'1211.9
2014-Jul-25 13:33N 51°21' E 001°45'1212.2
2014-Jul-25 12:33N 51°10' E 001°36'9 8.9
2014-Jul-25 11:33N 51°01' E 001°33'1212.1
2014-Jul-25 10:33N 50°51' E 001°24'2711.3
2014-Jul-25 08:08N 50°29' E 000°57'711.6
2014-Jul-25 07:33N 50°27' E 000°46'1211.8
2014-Jul-25 06:33N 50°24' E 000°29'1211.5
2014-Jul-25 05:31N 50°21' E 000°11'38 9.5
2014-Jul-25 01:31N 49°45' W 000°11'1010.1
2014-Jul-25 00:33N 49°36' W 000°12'9 9.3
2014-Jul-24 23:33N 49°29' W 000°02'1110.9
2014-Jul-24 22:33N 49°26' E 000°14'1010.4
2014-Jul-24 21:33N 49°29' E 000°29'7 0.2
2014-Jul-23 17:27N 49°27' E 000°40'910.0
2014-Jul-23 16:33N 49°27' E 000°26'1212.4
2014-Jul-23 15:33N 49°26' E 000°07'9 8.7
2014-Jul-23 14:33N 49°29' W 000°06'0 0.1
2014-Jul-23 13:31N 49°29' W 000°06'0 0.0
2014-Jul-23 12:28N 49°29' W 000°06'0 0.0
2014-Jul-23 11:28N 49°29' W 000°06'0 0.0
2014-Jul-23 10:28N 49°29' W 000°06'0 0.1
2014-Jul-23 09:28N 49°29' W 000°06'0 0.1
2014-Jul-23 08:28N 49°29' W 000°06'0 0.0
2014-Jul-23 07:31N 49°29' W 000°06'0 0.0
2014-Jul-23 06:28N 49°29' W 000°06'0 0.0
2014-Jul-23 05:31N 49°29' W 000°06'0 0.1
2014-Jul-23 04:30N 49°29' W 000°06'0 0.0
2014-Jul-23 03:30N 49°29' W 000°06'0 0.0
2014-Jul-23 02:30N 49°29' W 000°06'0 0.0
2014-Jul-23 01:30N 49°29' W 000°06'0 0.0
2014-Jul-23 00:30N 49°29' W 000°06'0 0.0
2014-Jul-22 23:33N 49°29' W 000°06'0 0.0
2014-Jul-22 22:30N 49°29' W 000°06'0 0.0
2014-Jul-22 21:33N 49°29' W 000°06'0 0.0
2014-Jul-22 20:30N 49°29' W 000°06'0 0.0
2014-Jul-22 19:30N 49°29' W 000°06'0 0.0
2014-Jul-22 18:30N 49°29' W 000°06'0 0.0
2014-Jul-22 17:30N 49°29' W 000°06'0 0.0
2014-Jul-22 16:30N 49°29' W 000°06'0 0.0
2014-Jul-22 15:30N 49°29' W 000°06'0 0.0
2014-Jul-22 14:30N 49°29' W 000°06'0 0.0
2014-Jul-22 13:33N 49°29' W 000°06'0 0.0
2014-Jul-22 12:30N 49°29' W 000°06'0 0.0
2014-Jul-22 11:30N 49°29' W 000°06'0 0.0
2014-Jul-22 10:30N 49°29' W 000°06'0 0.0
2014-Jul-22 09:30N 49°29' W 000°06'0 0.0
2014-Jul-22 08:30N 49°29' W 000°06'0 0.0
2014-Jul-22 07:30N 49°29' W 000°06'0 0.1
2014-Jul-22 06:30N 49°29' W 000°06'0 0.0
2014-Jul-22 05:30N 49°29' W 000°06'0 0.0
2014-Jul-22 04:30N 49°29' W 000°06'0 0.0
2014-Jul-22 03:30N 49°29' W 000°06'0 0.0
2014-Jul-22 02:33N 49°29' W 000°06'0 0.0
2014-Jul-22 01:33N 49°29' W 000°06'0 0.0
2014-Jul-22 00:30N 49°29' W 000°06'0 0.0
2014-Jul-21 23:30N 49°29' W 000°06'0 0.0
2014-Jul-21 22:30N 49°29' W 000°06'0 0.0
2014-Jul-21 21:30N 49°29' W 000°06'0 0.0
2014-Jul-21 20:33N 49°29' W 000°06'0 0.0
2014-Jul-21 20:18N 49°29' W 000°06'0 0.0
2014-Jul-21 19:33N 49°29' W 000°06'0 0.0
2014-Jul-21 18:33N 49°29' W 000°06'0 0.0
2014-Jul-21 17:27N 49°29' W 000°06'0 0.0
2014-Jul-21 16:30N 49°29' W 000°06'0 0.0
2014-Jul-21 15:33N 49°29' W 000°06'0 0.0
2014-Jul-21 14:33N 49°29' W 000°06'0 0.0
2014-Jul-21 13:33N 49°29' W 000°06'0 0.0
2014-Jul-21 12:33N 49°29' W 000°06'0 0.0
2014-Jul-21 11:30N 49°29' W 000°06'0 0.0
2014-Jul-21 10:30N 49°29' W 000°06'0 0.0
2014-Jul-21 09:33N 49°29' W 000°06'0 0.0
2014-Jul-21 08:30N 49°29' W 000°06'0 0.0
2014-Jul-21 07:33N 49°29' W 000°06'0 0.0
2014-Jul-21 06:33N 49°29' W 000°06'0 0.0
2014-Jul-21 05:33N 49°29' W 000°06'0 0.0
2014-Jul-21 04:30N 49°29' W 000°06'0 0.0
2014-Jul-21 03:33N 49°29' W 000°06'0 0.0
2014-Jul-21 02:34N 49°29' W 000°06'9 8.7
2014-Jul-21 01:33N 49°32' W 000°18'1211.8
2014-Jul-21 00:33N 49°38' W 000°34'1111.3
2014-Jul-20 23:33N 49°43' W 000°50'  
Track history (hours):
 
Tides and Currents Weather Stations Pressure Air Temp Water Temp Dewpoint Dewpoint Depression Visibility Wind Speed Wind Dir Waves Ship Positions

Arklow Raider

Last reported at 2014-Jul-30 12:28 UTC. Time now 2014-Jul-30 13:15 UTC.
Position N 53°55' E 009°12'.

Length 90 m; draft 3.6 m.

Type: Cargo ship. MMSI: 250001268.

Date/timePositionNaut miles runAvg speedWind from/ knotsBaromVisibWave heightAir tempDewpointWater temp
2014-Jul-30 12:28N 53°55' E 009°12'0 0.0
2014-Jul-30 11:31N 53°55' E 009°12'0 0.0
2014-Jul-30 10:31N 53°55' E 009°12'0 0.0
2014-Jul-30 09:31N 53°55' E 009°12'0 0.0
2014-Jul-30 08:31N 53°55' E 009°12'0 0.0
2014-Jul-30 07:31N 53°55' E 009°12'0 0.1
2014-Jul-30 06:34N 53°55' E 009°12'3 3.1
2014-Jul-30 05:33N 53°53' E 009°08'8 8.0
2014-Jul-30 04:34N 53°51' E 008°55'1010.2
2014-Jul-30 03:33N 53°56' E 008°40'1111.0
2014-Jul-30 02:34N 53°59' E 008°22'1110.7
2014-Jul-30 01:31N 53°58' E 008°03'1111.3
2014-Jul-30 00:34N 53°56' E 007°45'1111.5
2014-Jul-29 23:34N 53°53' E 007°26'1211.7
2014-Jul-29 22:33N 53°51' E 007°07'1312.0
2014-Jul-29 21:30N 53°48' E 006°46'1111.9
2014-Jul-29 20:33N 53°45' E 006°27'1212.0
2014-Jul-29 19:33N 53°42' E 006°08'1211.9
2014-Jul-29 18:34N 53°38' E 005°49'1211.7
2014-Jul-29 17:34N 53°34' E 005°30'1211.6
2014-Jul-29 16:34N 53°31' E 005°12'1111.0
2014-Jul-29 15:33N 53°27' E 004°55'11 9.8
2014-Jul-29 14:23N 53°20' E 004°39'910.5
2014-Jul-29 13:33N 53°12' E 004°33'1010.2
2014-Jul-29 12:33N 53°03' E 004°25'1110.4
2014-Jul-29 11:30N 52°53' E 004°15'7410.7
2014-Jul-29 04:33N 52°58' E 002°13'10 9.8
2014-Jul-29 03:33N 53°03' E 001°59'10 9.8
2014-Jul-29 02:32N 53°08' E 001°45'1310.1
2014-Jul-29 01:15N 53°14' E 001°25'810.4
2014-Jul-29 00:31N 53°17' E 001°13'1010.8
2014-Jul-28 23:34N 53°21' E 000°58'1111.1
2014-Jul-28 22:33N 53°27' E 000°41'1111.4
2014-Jul-28 21:34N 53°32' E 000°24'1110.9
2014-Jul-28 20:33N 53°34' E 000°06'1211.8
2014-Jul-28 19:33N 53°39' W 000°11'7 7.1
2014-Jul-28 18:33N 53°43' W 000°22'0 0.1
2014-Jul-28 16:33N 53°43' W 000°22'0 0.0
2014-Jul-28 15:30N 53°43' W 000°22'0 0.0
2014-Jul-28 14:30N 53°43' W 000°22'0 0.0
2014-Jul-28 13:18N 53°43' W 000°22'0 0.0
2014-Jul-28 12:18N 53°43' W 000°22'0 0.0
2014-Jul-28 11:18N 53°43' W 000°22'0 0.0
2014-Jul-28 10:06N 53°43' W 000°22'0 0.0
2014-Jul-28 09:21N 53°43' W 000°22'0 0.0
2014-Jul-28 08:24N 53°43' W 000°22'0 0.0
2014-Jul-28 07:09N 53°43' W 000°22'0 0.0
2014-Jul-28 06:30N 53°43' W 000°22'0 0.0
2014-Jul-28 05:30N 53°43' W 000°22'0 0.0
2014-Jul-28 04:30N 53°43' W 000°22'0 0.0
2014-Jul-28 02:18N 53°43' W 000°22'0 0.0
2014-Jul-28 01:33N 53°43' W 000°22'0 0.0
2014-Jul-28 00:30N 53°43' W 000°22'0 0.0
2014-Jul-27 23:33N 53°43' W 000°22'0 0.0
2014-Jul-27 22:21N 53°43' W 000°22'0 0.0
2014-Jul-27 21:33N 53°43' W 000°22'0 0.0
2014-Jul-27 20:21N 53°43' W 000°22'0 0.0
2014-Jul-27 19:22N 53°43' W 000°22'1 1.4
2014-Jul-27 18:33N 53°43' W 000°20'8 8.5
2014-Jul-27 17:33N 53°38' W 000°09'1212.0
2014-Jul-27 16:33N 53°33' E 000°10'8 7.5
2014-Jul-27 15:33N 53°33' E 000°22'3 1.6
2014-Jul-27 13:33N 53°36' E 000°25'0 0.1
2014-Jul-27 12:21N 53°36' E 000°25'0 0.0
2014-Jul-27 11:06N 53°36' E 000°25'0 0.0
2014-Jul-27 08:27N 53°36' E 000°25'0 0.1
2014-Jul-27 07:33N 53°36' E 000°25'0 0.1
2014-Jul-27 06:28N 53°36' E 000°25'0 0.0
2014-Jul-27 05:15N 53°36' E 000°25'0 0.0
2014-Jul-27 04:30N 53°36' E 000°25'0 0.0
2014-Jul-27 03:16N 53°36' E 000°25'0 0.0
2014-Jul-27 02:18N 53°36' E 000°25'0 0.1
2014-Jul-27 01:19N 53°36' E 000°25'0 0.1
2014-Jul-26 23:15N 53°36' E 000°25'0 0.0
2014-Jul-26 22:06N 53°36' E 000°25'0 0.0
2014-Jul-26 21:24N 53°36' E 000°25'0 0.0
2014-Jul-26 20:31N 53°36' E 000°25'0 0.0
2014-Jul-26 19:33N 53°36' E 000°25'0 0.1
2014-Jul-26 18:33N 53°36' E 000°25'0 0.0
2014-Jul-26 17:34N 53°36' E 000°25'0 0.0
2014-Jul-26 16:33N 53°36' E 000°25'0 0.0
2014-Jul-26 15:33N 53°36' E 000°25'0 0.0
2014-Jul-26 14:34N 53°36' E 000°25'0 0.0
2014-Jul-26 13:33N 53°36' E 000°25'0 0.1
2014-Jul-26 12:34N 53°36' E 000°25'0 0.0
2014-Jul-26 11:24N 53°36' E 000°25'0 0.1
2014-Jul-26 10:34N 53°36' E 000°25'0 0.0
2014-Jul-26 09:24N 53°36' E 000°25'0 0.0
2014-Jul-26 08:30N 53°36' E 000°25'0 0.1
2014-Jul-26 07:22N 53°36' E 000°25'0 0.1
2014-Jul-26 06:18N 53°36' E 000°25'1 0.8
2014-Jul-26 05:25N 53°35' E 000°25'6 7.4
2014-Jul-26 04:33N 53°29' E 000°29'10 9.5
2014-Jul-26 03:33N 53°21' E 000°35'10 9.8
2014-Jul-26 02:31N 53°13' E 000°46'1110.7
2014-Jul-26 01:32N 53°06' E 001°00'1111.2
2014-Jul-26 00:33N 53°03' E 001°17'1211.5
2014-Jul-25 23:33N 52°57' E 001°33'1111.4
2014-Jul-25 22:33N 52°49' E 001°48'34 8.6
2014-Jul-25 18:33N 52°15' E 001°56'1010.2
2014-Jul-25 17:33N 52°05' E 001°53'1110.7
2014-Jul-25 16:33N 51°55' E 001°49'1111.3
2014-Jul-25 15:33N 51°44' E 001°49'1111.2
2014-Jul-25 14:33N 51°32' E 001°49'1211.9
2014-Jul-25 13:33N 51°21' E 001°45'1212.2
2014-Jul-25 12:33N 51°10' E 001°36'9 8.9
2014-Jul-25 11:33N 51°01' E 001°33'1212.1
2014-Jul-25 10:33N 50°51' E 001°24'2711.3
2014-Jul-25 08:08N 50°29' E 000°57'711.6
2014-Jul-25 07:33N 50°27' E 000°46'1211.8
2014-Jul-25 06:33N 50°24' E 000°29'1211.5
2014-Jul-25 05:31N 50°21' E 000°11'38 9.5
2014-Jul-25 01:31N 49°45' W 000°11'1010.1
2014-Jul-25 00:33N 49°36' W 000°12'9 9.3
2014-Jul-24 23:33N 49°29' W 000°02'1110.9
2014-Jul-24 22:33N 49°26' E 000°14'1010.4
2014-Jul-24 21:33N 49°29' E 000°29'7 0.2
2014-Jul-23 17:27N 49°27' E 000°40'910.0
2014-Jul-23 16:33N 49°27' E 000°26'1212.4
2014-Jul-23 15:33N 49°26' E 000°07'9 8.7
2014-Jul-23 14:33N 49°29' W 000°06'0 0.1
2014-Jul-23 13:31N 49°29' W 000°06'0 0.0
2014-Jul-23 12:28N 49°29' W 000°06'0 0.0
2014-Jul-23 11:28N 49°29' W 000°06'0 0.0
2014-Jul-23 10:28N 49°29' W 000°06'0 0.1
2014-Jul-23 09:28N 49°29' W 000°06'0 0.1
2014-Jul-23 08:28N 49°29' W 000°06'0 0.0
2014-Jul-23 07:31N 49°29' W 000°06'0 0.0
2014-Jul-23 06:28N 49°29' W 000°06'0 0.0
2014-Jul-23 05:31N 49°29' W 000°06'0 0.1
2014-Jul-23 04:30N 49°29' W 000°06'0 0.0
2014-Jul-23 03:30N 49°29' W 000°06'0 0.0
2014-Jul-23 02:30N 49°29' W 000°06'0 0.0
2014-Jul-23 01:30N 49°29' W 000°06'0 0.0
2014-Jul-23 00:30N 49°29' W 000°06'0 0.0
2014-Jul-22 23:33N 49°29' W 000°06'0 0.0
2014-Jul-22 22:30N 49°29' W 000°06'0 0.0
2014-Jul-22 21:33N 49°29' W 000°06'0 0.0
2014-Jul-22 20:30N 49°29' W 000°06'0 0.0
2014-Jul-22 19:30N 49°29' W 000°06'0 0.0
2014-Jul-22 18:30N 49°29' W 000°06'0 0.0
2014-Jul-22 17:30N 49°29' W 000°06'0 0.0
2014-Jul-22 16:30N 49°29' W 000°06'0 0.0
2014-Jul-22 15:30N 49°29' W 000°06'0 0.0
2014-Jul-22 14:30N 49°29' W 000°06'0 0.0
2014-Jul-22 13:33N 49°29' W 000°06'0 0.0
2014-Jul-22 12:30N 49°29' W 000°06'0 0.0
2014-Jul-22 11:30N 49°29' W 000°06'0 0.0
2014-Jul-22 10:30N 49°29' W 000°06'0 0.0
2014-Jul-22 09:30N 49°29' W 000°06'0 0.0
2014-Jul-22 08:30N 49°29' W 000°06'0 0.0
2014-Jul-22 07:30N 49°29' W 000°06'0 0.1
2014-Jul-22 06:30N 49°29' W 000°06'0 0.0
2014-Jul-22 05:30N 49°29' W 000°06'0 0.0
2014-Jul-22 04:30N 49°29' W 000°06'0 0.0
2014-Jul-22 03:30N 49°29' W 000°06'0 0.0
2014-Jul-22 02:33N 49°29' W 000°06'0 0.0
2014-Jul-22 01:33N 49°29' W 000°06'0 0.0
2014-Jul-22 00:30N 49°29' W 000°06'0 0.0
2014-Jul-21 23:30N 49°29' W 000°06'0 0.0
2014-Jul-21 22:30N 49°29' W 000°06'0 0.0
2014-Jul-21 21:30N 49°29' W 000°06'0 0.0
2014-Jul-21 20:33N 49°29' W 000°06'0 0.0
2014-Jul-21 20:18N 49°29' W 000°06'0 0.0
2014-Jul-21 19:33N 49°29' W 000°06'0 0.0
2014-Jul-21 18:33N 49°29' W 000°06'0 0.0
2014-Jul-21 17:27N 49°29' W 000°06'0 0.0
2014-Jul-21 16:30N 49°29' W 000°06'0 0.0
2014-Jul-21 15:33N 49°29' W 000°06'0 0.0
2014-Jul-21 14:33N 49°29' W 000°06'0 0.0
2014-Jul-21 13:33N 49°29' W 000°06'0 0.0
2014-Jul-21 12:33N 49°29' W 000°06'0 0.0
2014-Jul-21 11:30N 49°29' W 000°06'0 0.0
2014-Jul-21 10:30N 49°29' W 000°06'0 0.0
2014-Jul-21 09:33N 49°29' W 000°06'0 0.0
2014-Jul-21 08:30N 49°29' W 000°06'0 0.0
2014-Jul-21 07:33N 49°29' W 000°06'0 0.0
2014-Jul-21 06:33N 49°29' W 000°06'0 0.0
2014-Jul-21 05:33N 49°29' W 000°06'0 0.0
2014-Jul-21 04:30N 49°29' W 000°06'0 0.0
2014-Jul-21 03:33N 49°29' W 000°06'0 0.0
2014-Jul-21 02:34N 49°29' W 000°06'9 8.7
2014-Jul-21 01:33N 49°32' W 000°18'1211.8
2014-Jul-21 00:33N 49°38' W 000°34'1111.3
2014-Jul-20 23:33N 49°43' W 000°50'  

Dump ship's entire track history